Time;durP1;ratioP1;P1;durP2;ratioP2;P2;SDS_P1;SDS_P2;PMS_P1;PMS_P2;Temp;Humidity;BMP_temperature;BMP_pressure;BME280_temperature;BME280_humidity;BME280_pressure;Samples;Min_cycle;Max_cycle;Signal;HPM_P1;HPM_P2
2024/04/15 00:01:15;;;;;;;0.10;0.10;;;;;;;-139.19;100.00;56970.53;5527433;26;20399;-66
2024/04/15 00:03:41;;;;;;;1.83;0.63;;;;;;;-139.19;100.00;56970.53;5526655;26;20322;-66
2024/04/15 00:06:06;;;;;;;0.10;0.10;;;;;;;-139.19;100.00;56970.53;5527831;26;19997;-66
2024/04/15 00:08:31;;;;;;;0.38;0.35;;;;;;;-139.19;100.00;56970.53;5524774;26;20013;-66
2024/04/15 00:10:57;;;;;;;0.30;0.30;;;;;;;-139.19;100.00;56970.53;5526675;26;20005;-66
2024/04/15 00:13:22;;;;;;;0.95;0.90;;;;;;;-139.19;100.00;56970.53;5527071;26;20325;-66
2024/04/15 00:15:55;;;;;;;0.17;0.17;;;;;;;-139.19;100.00;56970.53;5494449;26;20033;-66
2024/04/15 00:18:21;;;;;;;0.25;0.25;;;;;;;-139.19;100.00;56970.53;5524874;26;20005;-66
2024/04/15 00:20:46;;;;;;;0.90;0.73;;;;;;;-139.19;100.00;56970.53;5491372;26;20318;-66
2024/04/15 00:23:11;;;;;;;0.30;0.20;;;;;;;-139.19;100.00;56970.53;5502970;26;20347;-67
2024/04/15 00:25:37;;;;;;;0.15;0.15;;;;;;;-139.19;100.00;56970.53;5527122;26;19998;-66
2024/04/15 00:28:02;;;;;;;0.63;0.20;;;;;;;-139.19;100.00;56970.53;5526975;26;20326;-66
2024/04/15 00:30:28;;;;;;;4.47;0.32;;;;;;;-139.19;100.00;56970.53;5513858;26;20010;-66
2024/04/15 00:32:53;;;;;;;0.20;0.20;;;;;;;-139.19;100.00;56970.53;5493049;26;20006;-66
2024/04/15 00:35:19;;;;;;;0.20;0.20;;;;;;;-139.19;100.00;56970.53;5491239;26;19998;-66
2024/04/15 00:37:44;;;;;;;0.38;0.38;;;;;;;-139.19;100.00;56970.53;5490967;26;20010;-66
2024/04/15 00:40:10;;;;;;;0.20;0.20;;;;;;;-139.19;100.00;56970.53;5522568;26;20069;-66
2024/04/15 00:42:35;;;;;;;0.30;0.30;;;;;;;-139.19;100.00;56970.53;5526632;26;20012;-66
2024/04/15 00:45:01;;;;;;;0.20;0.20;;;;;;;-139.19;100.00;56970.53;5526140;26;19997;-66
2024/04/15 00:47:26;;;;;;;0.32;0.32;;;;;;;-139.19;100.00;56970.53;5509355;26;20350;-66
2024/04/15 00:49:52;;;;;;;0.17;0.17;;;;;;;-139.19;100.00;56970.53;5490799;26;20001;-66
2024/04/15 00:52:17;;;;;;;0.70;0.70;;;;;;;-139.19;100.00;56970.53;5490782;26;20002;-66
2024/04/15 00:54:44;;;;;;;0.15;0.15;;;;;;;-139.19;100.00;56970.53;5490914;26;20043;-66
2024/04/15 00:57:10;;;;;;;0.10;0.10;;;;;;;-139.19;100.00;56970.53;5490426;26;20430;-66
2024/04/15 00:59:37;;;;;;;0.13;0.13;;;;;;;-139.19;100.00;56970.53;5490986;26;20020;-66
2024/04/15 01:02:04;;;;;;;0.10;0.10;;;;;;;-139.19;100.00;56970.53;5517822;26;20333;-66
2024/04/15 01:04:29;;;;;;;0.28;0.28;;;;;;;-139.19;100.00;56970.53;5511233;26;20441;-66
2024/04/15 01:06:55;;;;;;;5.47;0.60;;;;;;;-139.19;100.00;56970.53;5525895;26;20001;-66
2024/04/15 01:09:20;;;;;;;0.10;0.10;;;;;;;-139.19;100.00;56970.53;5526304;26;19997;-66
2024/04/15 01:11:46;;;;;;;7.18;0.50;;;;;;;-139.19;100.00;56970.53;5526440;26;20005;-66
2024/04/15 01:14:11;;;;;;;0.30;0.25;;;;;;;-139.19;100.00;56970.53;5498651;26;19994;-66
2024/04/15 01:16:38;;;;;;;0.50;0.50;;;;;;;-139.19;100.00;56970.53;5509470;26;20313;-67
2024/04/15 01:19:04;;;;;;;0.30;0.25;;;;;;;-139.19;100.00;56970.53;5519804;26;20311;-66
2024/04/15 01:21:29;;;;;;;0.40;0.40;;;;;;;-139.19;100.00;56970.53;5490325;26;20009;-66
2024/04/15 01:23:57;;;;;;;0.20;0.20;;;;;;;-139.19;100.00;56970.53;5490235;26;20008;-67
2024/04/15 01:26:22;;;;;;;0.63;0.63;;;;;;;-139.19;100.00;56970.53;5490088;26;20017;-66
2024/04/15 01:28:47;;;;;;;0.20;0.20;;;;;;;-139.19;100.00;56970.53;5490116;26;19998;-66
2024/04/15 01:31:13;;;;;;;0.63;0.47;;;;;;;-139.19;100.00;56970.53;5492127;26;20332;-67
2024/04/15 01:33:38;;;;;;;0.93;0.85;;;;;;;-139.19;100.00;56970.53;5490489;26;20419;-66
2024/04/15 01:36:03;;;;;;;0.38;0.38;;;;;;;-139.19;100.00;56970.53;5519682;26;20012;-66
2024/04/15 01:38:29;;;;;;;0.43;0.43;;;;;;;-139.19;100.00;56970.53;5525327;26;20025;-66
2024/04/15 01:40:54;;;;;;;0.10;0.10;;;;;;;-139.19;100.00;56970.53;5525717;26;20013;-66
2024/04/15 01:43:20;;;;;;;0.68;0.52;;;;;;;-139.19;100.00;56970.53;5525223;26;20022;-66
2024/04/15 01:45:45;;;;;;;0.52;0.45;;;;;;;-139.19;100.00;56970.53;5517592;26;20009;-66
2024/04/15 01:48:11;;;;;;;0.75;0.45;;;;;;;-139.19;100.00;56970.53;5489787;26;19998;-66
2024/04/15 01:50:36;;;;;;;0.85;0.60;;;;;;;-139.19;100.00;56970.53;5489752;26;20041;-66
2024/04/15 01:53:01;;;;;;;3.63;0.93;;;;;;;-139.19;100.00;56970.53;5489951;26;19998;-66
2024/04/15 01:55:27;;;;;;;2.00;1.13;;;;;;;-139.19;100.00;56970.53;5490574;26;20009;-66
2024/04/15 01:57:52;;;;;;;0.00;0.00;;;;;;;-139.19;100.00;56970.53;5491320;26;19997;-66
2024/04/15 02:00:17;;;;;;;0.10;0.10;;;;;;;-139.19;100.00;56970.53;5504610;26;20001;-66
2024/04/15 02:02:43;;;;;;;0.10;0.10;;;;;;;-139.19;100.00;56970.53;5528585;26;20029;-66
2024/04/15 02:05:08;;;;;;;0.40;0.40;;;;;;;-139.19;100.00;56970.53;5526627;26;20032;-66
2024/04/15 02:07:36;;;;;;;0.15;0.15;;;;;;;-139.19;100.00;56970.53;5528952;26;20333;-66
2024/04/15 02:10:02;;;;;;;0.20;0.20;;;;;;;-139.19;100.00;56970.53;5528976;26;20481;-66
2024/04/15 02:12:27;;;;;;;0.45;0.25;;;;;;;-139.19;100.00;56970.53;5528930;26;20001;-66
2024/04/15 02:14:52;;;;;;;0.45;0.45;;;;;;;-139.19;100.00;56970.53;5518467;26;19994;-66
2024/04/15 02:17:18;;;;;;;0.00;0.00;;;;;;;-139.19;100.00;56970.53;5493053;26;20322;-66
2024/04/15 02:19:43;;;;;;;0.20;0.20;;;;;;;-139.19;100.00;56970.53;5492904;26;20001;-66
2024/04/15 02:22:08;;;;;;;0.43;0.43;;;;;;;-139.19;100.00;56970.53;5521933;26;20154;-66
2024/04/15 02:24:34;;;;;;;0.40;0.40;;;;;;;-139.19;100.00;56970.53;5528312;26;20001;-66
2024/04/15 02:26:59;;;;;;;0.10;0.10;;;;;;;-139.19;100.00;56970.53;5528746;26;19998;-66
2024/04/15 02:29:24;;;;;;;0.10;0.10;;;;;;;-139.19;100.00;56970.53;5515601;26;20022;-66
2024/04/15 02:31:50;;;;;;;0.10;0.10;;;;;;;-139.19;100.00;56970.53;5492862;26;19998;-66
2024/04/15 02:34:17;;;;;;;0.15;0.10;;;;;;;-139.19;100.00;56970.53;5492689;26;20002;-66
2024/04/15 02:36:42;;;;;;;0.10;0.10;;;;;;;-139.19;100.00;56970.53;5494858;26;20002;-67
2024/04/15 02:39:08;;;;;;;0.90;0.50;;;;;;;-139.19;100.00;56970.53;5492666;26;20013;-66
2024/04/15 02:41:33;;;;;;;0.35;0.22;;;;;;;-139.19;100.00;56970.53;5492512;26;19998;-66
2024/04/15 02:43:58;;;;;;;0.10;0.10;;;;;;;-139.19;100.00;56970.53;5508362;26;20002;-67
2024/04/15 02:46:23;;;;;;;0.90;0.32;;;;;;;-139.19;100.00;56970.53;5528879;26;20005;-66
2024/04/15 02:48:49;;;;;;;0.10;0.10;;;;;;;-139.19;100.00;56970.53;5529412;26;20390;-66
2024/04/15 02:51:14;;;;;;;0.20;0.20;;;;;;;-139.19;100.00;56970.53;5527881;26;20414;-66
2024/04/15 02:53:39;;;;;;;0.20;0.20;;;;;;;-139.19;100.00;56970.53;5506938;26;20002;-66
2024/04/15 02:56:05;;;;;;;0.40;0.40;;;;;;;-139.19;100.00;56970.53;5493768;26;20030;-66
2024/04/15 02:58:30;;;;;;;1.90;0.75;;;;;;;-139.19;100.00;56970.53;5516890;26;20073;-66
2024/04/15 03:00:58;;;;;;;0.17;0.17;;;;;;;-139.19;100.00;56970.53;5527665;26;19997;-68
2024/04/15 03:03:24;;;;;;;2.30;0.57;;;;;;;-139.19;100.00;56970.53;5527596;26;19993;-66
2024/04/15 03:05:49;;;;;;;0.55;0.43;;;;;;;-139.19;100.00;56970.53;5528730;26;19997;-66
2024/04/15 03:08:14;;;;;;;0.10;0.10;;;;;;;-139.19;100.00;56970.53;5528808;26;19997;-66
2024/04/15 03:10:40;;;;;;;0.70;0.57;;;;;;;-139.19;100.00;56970.53;5517112;26;20069;-66
2024/04/15 03:13:05;;;;;;;0.10;0.10;;;;;;;-139.19;100.00;56970.53;5521511;26;20010;-66
2024/04/15 03:15:31;;;;;;;0.65;0.22;;;;;;;-139.19;100.00;56970.53;5492370;26;20002;-66
2024/04/15 03:17:57;;;;;;;0.20;0.20;;;;;;;-139.19;100.00;56970.53;5492063;26;20009;-67
2024/04/15 03:20:25;;;;;;;0.00;0.00;;;;;;;-139.19;100.00;56970.53;5492138;26;20412;-66
2024/04/15 03:22:51;;;;;;;0.03;0.03;;;;;;;-139.19;100.00;56970.53;5459843;26;20010;-66
2024/04/15 03:25:17;;;;;;;0.05;0.05;;;;;;;-139.19;100.00;56970.53;5492205;26;20006;-66
2024/04/15 03:27:42;;;;;;;0.10;0.10;;;;;;;-139.19;100.00;56970.53;5525505;26;19997;-66
2024/04/15 03:30:08;;;;;;;0.32;0.32;;;;;;;-139.19;100.00;56970.53;5504633;26;19998;-66
2024/04/15 03:32:34;;;;;;;0.03;0.03;;;;;;;-139.19;100.00;56970.53;5492027;26;20012;-66
2024/04/15 03:34:59;;;;;;;0.30;0.30;;;;;;;-139.19;100.00;56970.53;5491927;26;20398;-66
2024/04/15 03:37:24;;;;;;;0.65;0.43;;;;;;;-139.19;100.00;56970.53;5491709;26;20319;-66
2024/04/15 03:39:50;;;;;;;0.20;0.20;;;;;;;-139.19;100.00;56970.53;5493061;26;20478;-66
2024/04/15 03:42:15;;;;;;;0.10;0.10;;;;;;;-139.19;100.00;56970.53;5527478;26;20026;-66
2024/04/15 03:44:40;;;;;;;0.25;0.22;;;;;;;-139.19;100.00;56970.53;5501261;26;19994;-66
2024/04/15 03:47:06;;;;;;;0.20;0.20;;;;;;;-139.19;100.00;56970.53;5491764;26;20009;-67
2024/04/15 03:49:31;;;;;;;0.00;0.00;;;;;;;-139.19;100.00;56970.53;5514806;26;20004;-66
2024/04/15 03:51:56;;;;;;;0.10;0.10;;;;;;;-139.19;100.00;56970.53;5527439;26;19997;-67
2024/04/15 03:54:22;;;;;;;0.22;0.22;;;;;;;-139.19;100.00;56970.53;5524655;26;20021;-66
2024/04/15 03:56:47;;;;;;;0.65;0.47;;;;;;;-139.19;100.00;56970.53;5507242;26;20014;-66
2024/04/15 03:59:12;;;;;;;0.25;0.15;;;;;;;-139.19;100.00;56970.53;5514357;26;20009;-66
2024/04/15 04:01:38;;;;;;;0.10;0.10;;;;;;;-139.19;100.00;56970.53;5509472;26;20001;-67
2024/04/15 04:04:03;;;;;;;0.52;0.30;;;;;;;-139.19;100.00;56970.53;5517746;26;19994;-73
2024/04/15 04:06:30;;;;;;;1.25;0.30;;;;;;;-139.19;100.00;56970.53;5512647;26;20335;-66
2024/04/15 04:08:56;;;;;;;0.60;0.60;;;;;;;-139.19;100.00;56970.53;5491296;26;20337;-66
2024/04/15 04:11:22;;;;;;;0.00;0.00;;;;;;;-139.19;100.00;56970.53;5491155;26;19998;-66
2024/04/15 04:13:47;;;;;;;0.10;0.10;;;;;;;-139.19;100.00;56970.53;5491198;26;20005;-66
2024/04/15 04:16:13;;;;;;;0.40;0.40;;;;;;;-139.19;100.00;56970.53;5490932;26;20009;-66
2024/04/15 04:18:38;;;;;;;0.00;0.00;;;;;;;-139.19;100.00;56970.53;5490867;26;20533;-66
2024/04/15 04:21:09;;;;;;;0.10;0.10;;;;;;;-139.19;100.00;56970.53;5489885;26;19998;-66
2024/04/15 04:23:34;;;;;;;0.40;0.35;;;;;;;-139.19;100.00;56970.53;5490816;26;20001;-66
2024/04/15 04:26:00;;;;;;;0.38;0.38;;;;;;;-139.19;100.00;56970.53;5490797;26;20351;-66
2024/04/15 04:28:25;;;;;;;0.30;0.25;;;;;;;-139.19;100.00;56970.53;5490718;26;19994;-66
2024/04/15 04:30:50;;;;;;;0.17;0.17;;;;;;;-139.19;100.00;56970.53;5490648;26;19990;-66
2024/04/15 04:33:16;;;;;;;0.60;0.45;;;;;;;-139.19;100.00;56970.53;5490636;26;19994;-66
2024/04/15 04:35:41;;;;;;;0.13;0.13;;;;;;;-139.19;100.00;56970.53;5490640;26;20004;-66
2024/04/15 04:38:06;;;;;;;0.13;0.13;;;;;;;-139.19;100.00;56970.53;5490862;26;19994;-66
2024/04/15 04:40:33;;;;;;;0.00;0.00;;;;;;;-139.19;100.00;56970.53;5490651;26;20001;-66
2024/04/15 04:42:59;;;;;;;0.00;0.00;;;;;;;-139.19;100.00;56970.53;5490544;26;20449;-66
2024/04/15 04:45:25;;;;;;;0.73;0.28;;;;;;;-139.19;100.00;56970.53;5490482;26;20014;-66
2024/04/15 04:47:50;;;;;;;0.10;0.10;;;;;;;-139.19;100.00;56970.53;5490712;26;20359;-64
2024/04/15 04:50:16;;;;;;;0.10;0.10;;;;;;;-139.19;100.00;56970.53;5490419;26;19997;-66
2024/04/15 04:52:41;;;;;;;0.10;0.10;;;;;;;-139.19;100.00;56970.53;5490407;26;19994;-66
2024/04/15 04:55:07;;;;;;;0.28;0.28;;;;;;;-139.19;100.00;56970.53;5490365;26;19994;-66
2024/04/15 04:57:33;;;;;;;0.10;0.10;;;;;;;-139.19;100.00;56970.53;5490245;26;20009;-66
2024/04/15 04:59:58;;;;;;;0.32;0.32;;;;;;;-139.19;100.00;56970.53;5490432;26;20334;-66
2024/04/15 05:02:25;;;;;;;0.43;0.43;;;;;;;-139.19;100.00;56970.53;5490472;26;19994;-66
2024/04/15 05:04:51;;;;;;;0.10;0.10;;;;;;;-139.19;100.00;56970.53;5490359;26;19994;-66
2024/04/15 05:07:16;;;;;;;0.10;0.10;;;;;;;-139.19;100.00;56970.53;5490318;26;20009;-66
2024/04/15 05:09:41;;;;;;;0.50;0.30;;;;;;;-139.19;100.00;56970.53;5490218;26;20009;-66
2024/04/15 05:12:07;;;;;;;0.20;0.20;;;;;;;-139.19;100.00;56970.53;5490326;26;20074;-66
2024/04/15 05:14:33;;;;;;;0.05;0.05;;;;;;;-139.19;100.00;56970.53;5490264;26;20001;-66
2024/04/15 05:16:59;;;;;;;0.15;0.15;;;;;;;-139.19;100.00;56970.53;5490172;26;19991;-66
2024/04/15 05:19:24;;;;;;;0.08;0.08;;;;;;;-139.19;100.00;56970.53;5490181;26;20074;-66
2024/04/15 05:21:49;;;;;;;0.10;0.10;;;;;;;-139.19;100.00;56970.53;5490264;26;20009;-66
2024/04/15 05:24:15;;;;;;;0.40;0.40;;;;;;;-139.19;100.00;56970.53;5490100;26;20326;-75
2024/04/15 05:26:40;;;;;;;0.22;0.22;;;;;;;-139.19;100.00;56970.53;5490090;26;20338;-66
2024/04/15 05:29:05;;;;;;;0.05;0.05;;;;;;;-139.19;100.00;56970.53;5489985;26;20005;-65
2024/04/15 05:31:31;;;;;;;0.00;0.00;;;;;;;-139.19;100.00;56970.53;5488755;26;20438;-66
2024/04/15 05:33:56;;;;;;;0.08;0.08;;;;;;;-139.19;100.00;56970.53;5489385;26;19994;-66
2024/04/15 05:36:21;;;;;;;0.55;0.55;;;;;;;-139.19;100.00;56970.53;5490290;26;20337;-66
2024/04/15 05:38:46;;;;;;;0.20;0.20;;;;;;;-139.19;100.00;56970.53;5489847;26;19994;-66
2024/04/15 05:41:12;;;;;;;0.47;0.47;;;;;;;-139.19;100.00;56970.53;5489828;26;20006;-66
2024/04/15 05:43:37;;;;;;;0.30;0.30;;;;;;;-139.19;100.00;56970.53;5489798;26;19994;-66
2024/04/15 05:46:04;;;;;;;0.30;0.30;;;;;;;-139.19;100.00;56970.53;5489719;26;20442;-66
2024/04/15 05:48:30;;;;;;;0.13;0.13;;;;;;;-139.19;100.00;56970.53;5489770;26;20095;-66
2024/04/15 05:50:56;;;;;;;0.20;0.20;;;;;;;-139.19;100.00;56970.53;5489781;26;20469;-66
2024/04/15 05:53:21;;;;;;;0.50;0.50;;;;;;;-139.19;100.00;56970.53;5489760;26;20008;-66
2024/04/15 05:55:47;;;;;;;0.10;0.10;;;;;;;-139.19;100.00;56970.53;5489608;26;20013;-66
2024/04/15 05:58:12;;;;;;;0.60;0.60;;;;;;;-139.19;100.00;56970.53;5489515;26;19994;-66
2024/04/15 06:00:37;;;;;;;1.17;0.35;;;;;;;-139.19;100.00;56970.53;5489664;26;19994;-66
2024/04/15 06:03:03;;;;;;;0.47;0.47;;;;;;;-139.19;100.00;56970.53;5489523;26;20001;-66
2024/04/15 06:05:28;;;;;;;3.00;0.63;;;;;;;-139.19;100.00;56970.53;5489367;26;19998;-66
2024/04/15 06:07:54;;;;;;;0.75;0.75;;;;;;;-139.19;100.00;56970.53;5489316;26;20010;-66
2024/04/15 06:10:19;;;;;;;0.43;0.43;;;;;;;-139.19;100.00;56970.53;5489232;26;19998;-66
2024/04/15 06:12:44;;;;;;;0.30;0.30;;;;;;;-139.19;100.00;56970.53;5489263;26;20006;-66
2024/04/15 06:15:10;;;;;;;0.28;0.28;;;;;;;-139.19;100.00;56970.53;5489172;26;20005;-66
2024/04/15 06:17:35;;;;;;;0.10;0.10;;;;;;;-139.19;100.00;56970.53;5489244;26;19994;-66
2024/04/15 06:20:01;;;;;;;0.32;0.32;;;;;;;-139.19;100.00;56970.53;5489094;26;20439;-66
2024/04/15 06:22:26;;;;;;;3.55;0.52;;;;;;;-139.19;100.00;56970.53;5489108;26;20022;-66
2024/04/15 06:24:52;;;;;;;0.00;0.00;;;;;;;-139.19;100.00;56970.53;5489056;26;19994;-66
2024/04/15 06:27:18;;;;;;;0.30;0.30;;;;;;;-139.19;100.00;56970.53;5488955;26;20009;-66
2024/04/15 06:29:43;;;;;;;1.25;0.55;;;;;;;-139.19;100.00;56970.53;5488833;26;19990;-66
2024/04/15 06:32:09;;;;;;;2.85;1.35;;;;;;;-139.19;100.00;56970.53;5488862;26;20391;-66
2024/04/15 06:34:34;;;;;;;0.52;0.38;;;;;;;-139.19;100.00;56970.53;5488817;26;20005;-66
2024/04/15 06:36:59;;;;;;;0.10;0.10;;;;;;;-139.19;100.00;56970.53;5488804;26;20391;-66
2024/04/15 06:39:25;;;;;;;0.47;0.47;;;;;;;-139.19;100.00;56970.53;5488757;26;20515;-66
2024/04/15 06:41:51;;;;;;;1.42;0.88;;;;;;;-139.19;100.00;56970.53;5488830;26;20104;-66
2024/04/15 06:44:16;;;;;;;4.13;1.10;;;;;;;-139.19;100.00;56970.53;5490957;26;20412;-66
2024/04/15 06:46:42;;;;;;;0.22;0.22;;;;;;;-139.19;100.00;56970.53;5492415;26;19998;-66
2024/04/15 06:49:08;;;;;;;1.02;0.93;;;;;;;-139.19;100.00;56970.53;5492452;26;20005;-66
2024/04/15 06:51:36;;;;;;;0.22;0.22;;;;;;;-139.19;100.00;56970.53;5492398;26;20022;-66
2024/04/15 06:54:01;;;;;;;0.10;0.10;;;;;;;-139.19;100.00;56970.53;5492283;26;20050;-66
2024/04/15 06:56:26;;;;;;;0.68;0.45;;;;;;;-139.19;100.00;56970.53;5492273;26;20002;-66
2024/04/15 06:58:52;;;;;;;1.05;0.32;;;;;;;-139.19;100.00;56970.53;5492358;26;19998;-66
2024/04/15 07:01:17;;;;;;;0.20;0.20;;;;;;;-139.19;100.00;56970.53;5492587;26;20072;-65
2024/04/15 07:03:42;;;;;;;0.30;0.30;;;;;;;-139.19;100.00;56970.53;5492442;26;20009;-66
2024/04/15 07:06:08;;;;;;;0.65;0.30;;;;;;;-139.19;100.00;56970.53;5492397;26;20009;-66
2024/04/15 07:08:34;;;;;;;0.13;0.13;;;;;;;-139.19;100.00;56970.53;5492433;26;20005;-65
2024/04/15 07:11:00;;;;;;;1.75;0.75;;;;;;;-139.19;100.00;56970.53;5492335;26;20004;-66
2024/04/15 07:13:25;;;;;;;0.15;0.15;;;;;;;-139.19;100.00;56970.53;5492403;26;20066;-66
2024/04/15 07:15:50;;;;;;;0.10;0.10;;;;;;;-139.19;100.00;56970.53;5492310;26;20330;-66
2024/04/15 07:18:16;;;;;;;0.47;0.47;;;;;;;-139.19;100.00;56970.53;5492303;26;20345;-66
2024/04/15 07:20:44;;;;;;;2.63;0.85;;;;;;;-139.19;100.00;56970.53;5492164;26;19998;-66
2024/04/15 07:23:09;;;;;;;0.05;0.05;;;;;;;-139.19;100.00;56970.53;5492216;26;20304;-66
2024/04/15 07:25:35;;;;;;;0.28;0.28;;;;;;;-139.19;100.00;56970.53;5492207;26;20001;-66
2024/04/15 07:28:00;;;;;;;2.85;0.63;;;;;;;-139.19;100.00;56970.53;5492091;26;19998;-66
2024/04/15 07:30:25;;;;;;;0.10;0.10;;;;;;;-139.19;100.00;56970.53;5492030;26;20013;-66
2024/04/15 07:32:51;;;;;;;0.35;0.35;;;;;;;-139.19;100.00;56970.53;5492029;26;20005;-66
2024/04/15 07:35:17;;;;;;;0.20;0.20;;;;;;;-139.19;100.00;56970.53;5492119;26;20378;-66
2024/04/15 07:37:45;;;;;;;0.10;0.10;;;;;;;-139.19;100.00;56970.53;5492067;26;20006;-66
2024/04/15 07:40:10;;;;;;;0.50;0.40;;;;;;;-139.19;100.00;56970.53;5492030;26;20474;-66
2024/04/15 07:42:36;;;;;;;0.20;0.20;;;;;;;-139.19;100.00;56970.53;5491995;26;19994;-66
2024/04/15 07:45:01;;;;;;;0.15;0.15;;;;;;;-139.19;100.00;56970.53;5491882;26;19994;-67
2024/04/15 07:47:26;;;;;;;0.40;0.40;;;;;;;-139.19;100.00;56970.53;5491518;26;20442;-66
2024/04/15 07:49:52;;;;;;;0.10;0.10;;;;;;;-139.19;100.00;56970.53;5491459;26;20009;-66
2024/04/15 07:52:17;;;;;;;1.30;1.02;;;;;;;-139.19;100.00;56970.53;5491513;26;20001;-66
2024/04/15 07:54:42;;;;;;;0.05;0.05;;;;;;;-139.19;100.00;56970.53;5490386;26;20006;-66
2024/04/15 07:57:09;;;;;;;0.68;0.45;;;;;;;-139.19;100.00;56970.53;5491060;26;19990;-66
2024/04/15 07:59:35;;;;;;;0.60;0.60;;;;;;;-139.19;100.00;56970.53;5491687;26;20005;-66
2024/04/15 08:02:02;;;;;;;0.20;0.20;;;;;;;-139.19;100.00;56970.53;5491618;26;19990;-66
2024/04/15 08:04:27;;;;;;;0.15;0.15;;;;;;;-139.19;100.00;56970.53;5491548;26;19994;-66
2024/04/15 08:06:53;;;;;;;0.30;0.30;;;;;;;-139.19;100.00;56970.53;5491634;26;20391;-66
2024/04/15 08:09:18;;;;;;;0.45;0.45;;;;;;;-139.19;100.00;56970.53;5491260;26;20445;-66
2024/04/15 08:11:43;;;;;;;1.00;0.60;;;;;;;-139.19;100.00;56970.53;5491126;26;20005;-66
2024/04/15 08:14:09;;;;;;;1.73;0.40;;;;;;;-139.19;100.00;56970.53;5491222;26;20438;-66
2024/04/15 08:16:34;;;;;;;1.15;0.77;;;;;;;-139.19;100.00;56970.53;5491083;26;19994;-66
2024/04/15 08:18:59;;;;;;;0.20;0.20;;;;;;;-139.19;100.00;56970.53;5491164;26;20066;-64
2024/04/15 08:21:24;;;;;;;0.20;0.20;;;;;;;-139.19;100.00;56970.53;5491098;26;19994;-64
2024/04/15 08:23:50;;;;;;;2.72;0.30;;;;;;;-139.19;100.00;56970.53;5491112;26;19994;-64
2024/04/15 08:26:16;;;;;;;0.30;0.30;;;;;;;-139.19;100.00;56970.53;5491039;26;20009;-64
2024/04/15 08:28:41;;;;;;;0.22;0.22;;;;;;;-139.19;100.00;56970.53;5491012;26;20034;-64
2024/04/15 08:31:07;;;;;;;0.70;0.70;;;;;;;-139.19;100.00;56970.53;5490824;26;19990;-64
2024/04/15 08:33:32;;;;;;;0.17;0.17;;;;;;;-139.19;100.00;56970.53;5490941;26;20426;-64
2024/04/15 08:35:58;;;;;;;1.00;0.75;;;;;;;-139.19;100.00;56970.53;5490907;26;20406;-64
2024/04/15 08:38:23;;;;;;;0.65;0.65;;;;;;;-139.19;100.00;56970.53;5490855;26;19994;-64
2024/04/15 08:40:57;;;;;;;1.00;0.63;;;;;;;-139.19;100.00;56970.53;5490794;26;20002;-64
2024/04/15 08:43:24;;;;;;;0.25;0.25;;;;;;;-139.19;100.00;56970.53;5490804;26;20088;-64
2024/04/15 08:46:00;;;;;;;0.00;0.00;;;;;;;-139.19;100.00;56970.53;5490770;26;20006;-64
2024/04/15 08:48:27;;;;;;;1.23;0.43;;;;;;;-139.19;100.00;56970.53;5490757;26;20022;-64
2024/04/15 08:50:57;;;;;;;0.10;0.10;;;;;;;-139.19;100.00;56970.53;5490622;26;19990;-64
2024/04/15 08:53:23;;;;;;;1.67;0.40;;;;;;;-139.19;100.00;56970.53;5490729;26;19994;-64
2024/04/15 08:55:48;;;;;;;0.30;0.30;;;;;;;-139.19;100.00;56970.53;5490628;26;20005;-64
2024/04/15 08:58:14;;;;;;;0.10;0.10;;;;;;;-139.19;100.00;56970.53;5490660;26;19998;-64
2024/04/15 09:00:41;;;;;;;0.45;0.43;;;;;;;-139.19;100.00;56970.53;5490838;26;20441;-64
2024/04/15 09:03:07;;;;;;;0.15;0.15;;;;;;;-139.19;100.00;56970.53;5490765;26;20454;-64
2024/04/15 09:05:33;;;;;;;1.70;0.47;;;;;;;-139.19;100.00;56970.53;5490707;26;20005;-64
2024/04/15 09:07:58;;;;;;;0.30;0.30;;;;;;;-139.19;100.00;56970.53;5490281;26;20002;-64
2024/04/15 09:10:23;;;;;;;0.45;0.35;;;;;;;-139.19;100.00;56970.53;5490722;26;20039;-64
2024/04/15 09:12:49;;;;;;;1.88;0.57;;;;;;;-139.19;100.00;56970.53;5490639;26;20009;-64
2024/04/15 09:15:15;;;;;;;0.03;0.03;;;;;;;-139.19;100.00;56970.53;5490606;26;20010;-64
2024/04/15 09:17:41;;;;;;;0.40;0.40;;;;;;;-139.19;100.00;56970.53;5490555;26;20002;-64
2024/04/15 09:20:07;;;;;;;0.52;0.47;;;;;;;-139.19;100.00;56970.53;5490726;26;20335;-64
2024/04/15 09:22:34;;;;;;;2.03;0.85;;;;;;;-139.19;100.00;56970.53;5490518;26;20001;-64
2024/04/15 09:25:01;;;;;;;0.10;0.10;;;;;;;-139.19;100.00;56970.53;5490545;26;20005;-64
2024/04/15 09:27:27;;;;;;;0.20;0.20;;;;;;;-139.19;100.00;56970.53;5490460;26;19995;-64
2024/04/15 09:29:52;;;;;;;0.30;0.30;;;;;;;-139.19;100.00;56970.53;5490386;26;20325;-66
2024/04/15 09:32:18;;;;;;;0.50;0.40;;;;;;;-139.19;100.00;56970.53;5490337;26;20008;-66
2024/04/15 09:34:44;;;;;;;0.38;0.38;;;;;;;-139.19;100.00;56970.53;5490489;26;20422;-66
2024/04/15 09:37:09;;;;;;;0.10;0.10;;;;;;;-139.19;100.00;56970.53;5490309;26;20005;-66
2024/04/15 09:39:36;;;;;;;0.15;0.15;;;;;;;-139.19;100.00;56970.53;5490236;26;20450;-66
2024/04/15 09:42:02;;;;;;;0.30;0.30;;;;;;;-139.19;100.00;56970.53;5490140;26;20337;-66
2024/04/15 09:44:32;;;;;;;0.13;0.13;;;;;;;-139.19;100.00;56970.53;5489840;26;20009;-66
2024/04/15 09:46:58;;;;;;;0.10;0.10;;;;;;;-139.19;100.00;56970.53;5489816;26;20002;-66
2024/04/15 09:49:24;;;;;;;0.22;0.20;;;;;;;-139.19;100.00;56970.53;5489734;26;20387;-66
2024/04/15 09:51:51;;;;;;;0.20;0.20;;;;;;;-139.19;100.00;56970.53;5489592;26;20040;-66
2024/04/15 09:54:22;;;;;;;0.75;0.70;;;;;;;-139.19;100.00;56970.53;5489702;26;20010;-66
2024/04/15 09:56:48;;;;;;;0.10;0.10;;;;;;;-139.19;100.00;56970.53;5489609;26;19998;-66
2024/04/15 09:59:15;;;;;;;0.50;0.30;;;;;;;-139.19;100.00;56970.53;5489348;26;19998;-66
2024/04/15 10:01:42;;;;;;;0.13;0.13;;;;;;;-139.19;100.00;56970.53;5489455;26;20012;-66
2024/04/15 10:04:31;;;;;;;0.50;0.50;;;;;;;-139.19;100.00;56970.53;5489426;26;20009;-66
2024/04/15 10:07:02;;;;;;;0.28;0.28;;;;;;;-139.19;100.00;56970.53;5489418;26;20338;-66
2024/04/15 10:09:28;;;;;;;0.05;0.05;;;;;;;-139.19;100.00;56970.53;5489430;26;20091;-66
2024/04/15 10:11:55;;;;;;;0.20;0.20;;;;;;;-139.19;100.00;56970.53;5489228;26;20002;-66
2024/04/15 10:14:21;;;;;;;0.22;0.22;;;;;;;-139.19;100.00;56970.53;5489255;26;19994;-66
2024/04/15 10:16:47;;;;;;;2.03;0.75;;;;;;;-139.19;100.00;56970.53;5489164;26;20363;-66
2024/04/15 10:19:28;;;;;;;4.90;0.55;;;;;;;-139.19;100.00;56970.53;5491255;26;20067;-66
2024/04/15 10:21:55;;;;;;;0.45;0.40;;;;;;;-139.19;100.00;56970.53;5492836;26;20380;-66
2024/04/15 10:24:25;;;;;;;0.30;0.30;;;;;;;-139.19;100.00;56970.53;5492838;26;19990;-66
2024/04/15 10:26:52;;;;;;;0.10;0.10;;;;;;;-139.19;100.00;56970.53;5492789;26;20457;-66
2024/04/15 10:29:20;;;;;;;0.10;0.10;;;;;;;-139.19;100.00;56970.53;5492745;26;20013;-66
2024/04/15 10:31:53;;;;;;;0.10;0.10;;;;;;;-139.19;100.00;56970.53;5492590;26;20006;-66
2024/04/15 10:34:22;;;;;;;0.73;0.52;;;;;;;-139.19;100.00;56970.53;5492617;26;20453;-66
2024/04/15 10:36:52;;;;;;;2.15;1.13;;;;;;;-139.19;100.00;56970.53;5492630;26;20073;-66
2024/04/15 10:39:18;;;;;;;0.10;0.10;;;;;;;-139.19;100.00;56970.53;5492643;26;20006;-64
2024/04/15 10:41:45;;;;;;;0.10;0.10;;;;;;;-139.19;100.00;56970.53;5492534;26;19998;-64
2024/04/15 10:44:11;;;;;;;1.27;0.82;;;;;;;-139.19;100.00;56970.53;5492547;26;19994;-64
2024/04/15 10:46:40;;;;;;;0.10;0.10;;;;;;;-139.19;100.00;56970.53;5492448;26;20006;-64
2024/04/15 10:49:06;;;;;;;0.40;0.40;;;;;;;-139.19;100.00;56970.53;5492406;26;20445;-64
2024/04/15 10:51:32;;;;;;;0.25;0.25;;;;;;;-139.19;100.00;56970.53;5492261;26;19994;-64
2024/04/15 10:53:58;;;;;;;0.10;0.10;;;;;;;-139.19;100.00;56970.53;5492681;26;19998;-64
2024/04/15 10:56:23;;;;;;;0.52;0.38;;;;;;;-139.19;100.00;56970.53;5492329;26;20005;-64
2024/04/15 10:58:49;;;;;;;1.70;0.65;;;;;;;-139.19;100.00;56970.53;5492462;26;20009;-64
2024/04/15 11:01:15;;;;;;;0.43;0.43;;;;;;;-139.19;100.00;56970.53;5492559;26;20005;-64
2024/04/15 11:03:46;;;;;;;0.73;0.73;;;;;;;-139.19;100.00;56970.53;5492503;26;20070;-64